Time;durP1;ratioP1;P1;durP2;ratioP2;P2;SDS_P1;SDS_P2;PMS_P1;PMS_P2;Temp;Humidity;BMP_temperature;BMP_pressure;BME280_temperature;BME280_humidity;BME280_pressure;Samples;Min_cycle;Max_cycle;Signal;HPM_P1;HPM_P2
2022/12/07 00:00:41;;;;;;;7.63;7.03;;;19.30;44.50;;;;;;6215689;28;20140;-65
2022/12/07 00:03:45;;;;;;;8.27;7.68;;;19.10;44.10;;;;;;6213696;28;20092;-65
2022/12/07 00:06:51;;;;;;;7.65;7.10;;;19.20;44.20;;;;;;6206479;28;20048;-65
2022/12/07 00:09:53;;;;;;;6.70;6.20;;;19.30;44.00;;;;;;6183418;28;20343;-65
2022/12/07 00:12:54;;;;;;;5.93;5.50;;;19.20;44.30;;;;;;6205114;28;20052;-65
2022/12/07 00:15:56;;;;;;;4.70;4.40;;;18.90;44.00;;;;;;6208450;28;20045;-64
2022/12/07 00:18:58;;;;;;;4.50;4.13;;;19.10;44.00;;;;;;6212694;28;21013;-65
2022/12/07 00:22:00;;;;;;;3.58;3.28;;;19.10;43.90;;;;;;6204797;28;20044;-65
2022/12/07 00:25:01;;;;;;;3.67;3.25;;;18.90;44.00;;;;;;6211140;28;20045;-65
2022/12/07 00:28:03;;;;;;;2.83;2.63;;;18.90;43.90;;;;;;6205266;28;20053;-64
2022/12/07 00:31:07;;;;;;;2.63;2.42;;;19.20;44.00;;;;;;6208072;28;20048;-65
2022/12/07 00:34:13;;;;;;;3.13;2.83;;;18.80;43.10;;;;;;6204933;28;20969;-65
2022/12/07 00:37:15;;;;;;;3.10;2.78;;;19.00;43.70;;;;;;6205121;28;20073;-65
2022/12/07 00:40:16;;;;;;;3.28;2.97;;;18.60;43.60;;;;;;6202405;28;20083;-65
2022/12/07 00:43:18;;;;;;;;;;;18.90;44.00;;;;;;6203027;28;22430;-65
2022/12/07 00:46:20;;;;;;;3.95;3.55;;;19.10;44.20;;;;;;6208827;28;20862;-64
2022/12/07 00:49:22;;;;;;;4.13;3.72;;;18.80;43.80;;;;;;6207290;28;20053;-65
2022/12/07 00:52:24;;;;;;;3.03;2.72;;;18.90;43.90;;;;;;6208663;28;20738;-65
2022/12/07 00:55:25;;;;;;;2.95;2.65;;;19.10;43.30;;;;;;6211363;28;20049;-65
2022/12/07 00:58:27;;;;;;;2.78;2.47;;;18.90;43.80;;;;;;6205358;28;20045;-65
2022/12/07 01:01:30;;;;;;;3.05;2.53;;;18.70;43.60;;;;;;6204184;28;20110;-65
2022/12/07 01:04:33;;;;;;;3.08;2.45;;;19.10;43.60;;;;;;6217784;28;20033;-64
2022/12/07 01:07:36;;;;;;;2.55;2.30;;;19.00;43.70;;;;;;6221852;28;20535;-65
2022/12/07 01:10:37;;;;;;;2.10;1.90;;;19.00;43.60;;;;;;6214446;28;20045;-65
2022/12/07 01:13:39;;;;;;;1.98;1.80;;;18.70;43.60;;;;;;6213574;28;20045;-65
2022/12/07 01:16:41;;;;;;;1.80;1.50;;;;;;;;;;6209548;28;20048;-65
2022/12/07 01:19:42;;;;;;;2.15;1.95;;;18.80;39.80;;;;;;6210699;28;20126;-65
2022/12/07 01:22:44;;;;;;;;;;;19.00;43.50;;;;;;6211699;28;20942;-65
2022/12/07 01:25:53;;;;;;;2.05;1.60;;;18.80;43.90;;;;;;6209255;28;19929;-65
2022/12/07 01:28:55;;;;;;;2.00;1.80;;;19.00;43.40;;;;;;6206134;28;20041;-65
2022/12/07 01:31:56;;;;;;;2.05;1.65;;;18.80;43.90;;;;;;6203349;28;20094;-65
2022/12/07 01:34:58;;;;;;;2.85;2.10;;;19.00;43.60;;;;;;6196677;28;20043;-64
2022/12/07 01:38:00;;;;;;;1.83;1.52;;;19.00;43.40;;;;;;6211870;28;20045;-64
2022/12/07 01:41:02;;;;;;;2.08;1.88;;;18.80;43.30;;;;;;6215017;28;20091;-65
2022/12/07 01:44:12;;;;;;;1.95;1.70;;;18.90;43.30;;;;;;6210478;28;20068;-64
2022/12/07 01:47:14;;;;;;;2.13;1.65;;;19.00;43.30;;;;;;6211026;28;20048;-64
2022/12/07 01:50:15;;;;;;;1.70;1.60;;;19.00;43.20;;;;;;6212024;28;20041;-65
2022/12/07 01:53:17;;;;;;;;;;;18.60;42.80;;;;;;6216296;28;20037;-65
2022/12/07 01:56:22;;;;;;;2.08;1.88;;;19.00;43.30;;;;;;6208249;28;20039;-65
2022/12/07 01:59:26;;;;;;;1.88;1.55;;;18.90;43.00;;;;;;6210872;28;20082;-64
2022/12/07 02:02:31;;;;;;;2.13;1.80;;;18.90;42.90;;;;;;6206661;28;20340;-64
2022/12/07 02:05:35;;;;;;;1.88;1.40;;;18.40;42.50;;;;;;6200182;28;20135;-65
2022/12/07 02:08:37;;;;;;;2.00;1.80;;;18.90;42.80;;;;;;6203748;28;20059;-65
2022/12/07 02:11:40;;;;;;;2.35;1.90;;;19.00;42.90;;;;;;6204090;28;20155;-65
2022/12/07 02:14:41;;;;;;;1.83;1.65;;;18.90;42.70;;;;;;6206708;28;21109;-65
2022/12/07 02:17:46;;;;;;;;;;;19.00;42.60;;;;;;6208457;28;20834;-65
2022/12/07 02:20:56;;;;;;;2.10;1.85;;;19.10;43.10;;;;;;6204781;28;20471;-65
2022/12/07 02:24:24;;;;;;;2.25;1.88;;;18.90;42.60;;;;;;6193799;28;20563;-65
2022/12/07 02:27:37;;;;;;;1.73;1.60;;;18.90;42.60;;;;;;6199425;28;20946;-65
2022/12/07 02:30:45;;;;;;;1.85;1.60;;;18.70;43.00;;;;;;6195468;28;20621;-65
2022/12/07 02:33:52;;;;;;;2.20;1.80;;;18.60;42.30;;;;;;6200897;28;20443;-65
2022/12/07 02:37:00;;;;;;;2.28;1.75;;;18.70;42.80;;;;;;6197840;28;20208;-65
2022/12/07 02:40:06;;;;;;;2.17;1.65;;;18.90;42.20;;;;;;6197325;28;20053;-65
2022/12/07 02:43:12;;;;;;;2.20;1.88;;;18.50;42.00;;;;;;6200274;28;20344;-65
2022/12/07 02:46:18;;;;;;;2.05;1.85;;;18.70;42.10;;;;;;6201048;28;21239;-65
2022/12/07 02:49:23;;;;;;;1.92;1.70;;;18.70;42.00;;;;;;6199803;28;20293;-65
2022/12/07 02:52:24;;;;;;;2.05;1.83;;;18.60;41.90;;;;;;6176243;28;20067;-65
2022/12/07 02:55:40;;;;;;;2.13;1.88;;;18.70;42.10;;;;;;6194356;28;20807;-65
2022/12/07 02:58:54;;;;;;;1.83;1.70;;;18.40;41.80;;;;;;6199477;28;20324;-65
2022/12/07 03:02:12;;;;;;;1.77;1.52;;;18.40;41.60;;;;;;6197446;28;20440;-65
2022/12/07 03:05:28;;;;;;;1.67;1.58;;;18.70;41.90;;;;;;6196210;28;20062;-65
2022/12/07 03:08:37;;;;;;;2.13;1.90;;;18.90;41.90;;;;;;6198034;28;20614;-65
2022/12/07 03:11:45;;;;;;;2.50;2.00;;;18.90;41.80;;;;;;6191110;28;20580;-65
2022/12/07 03:14:52;;;;;;;2.67;2.30;;;18.80;41.70;;;;;;6199402;28;20841;-65
2022/12/07 03:17:57;;;;;;;2.03;1.75;;;18.50;41.60;;;;;;6197562;28;20104;-65
2022/12/07 03:21:05;;;;;;;2.05;1.67;;;18.70;41.70;;;;;;6196834;28;20375;-65
2022/12/07 03:24:11;;;;;;;1.67;1.58;;;18.70;41.60;;;;;;6200168;28;20584;-65
2022/12/07 03:27:17;;;;;;;2.20;2.00;;;18.80;41.60;;;;;;6196136;28;20045;-65
2022/12/07 03:30:20;;;;;;;2.03;1.80;;;18.70;41.50;;;;;;6192505;28;20278;-65
2022/12/07 03:33:26;;;;;;;2.25;1.90;;;18.50;41.20;;;;;;6196984;28;20776;-65
2022/12/07 03:36:36;;;;;;;1.85;1.60;;;18.80;41.30;;;;;;6196985;28;20167;-65
2022/12/07 03:39:41;;;;;;;2.10;1.90;;;18.50;41.20;;;;;;6196897;28;20974;-65
2022/12/07 03:42:43;;;;;;;2.10;1.90;;;18.50;41.20;;;;;;6199738;28;20182;-65
2022/12/07 03:45:49;;;;;;;1.90;1.52;;;18.80;41.50;;;;;;6200057;28;20037;-65
2022/12/07 03:48:57;;;;;;;1.70;1.60;;;18.30;41.00;;;;;;6199543;28;20933;-65
2022/12/07 03:52:09;;;;;;;2.30;1.75;;;18.80;41.10;;;;;;6196311;28;20080;-65
2022/12/07 03:55:18;;;;;;;1.70;1.45;;;18.80;41.10;;;;;;6200566;28;20307;-65
2022/12/07 03:58:22;;;;;;;2.05;1.80;;;18.50;40.90;;;;;;6199540;28;20914;-65
2022/12/07 04:01:24;;;;;;;1.90;1.70;;;18.90;41.00;;;;;;6193432;28;20354;-65
2022/12/07 04:04:26;;;;;;;2.20;2.00;;;19.00;41.10;;;;;;6181084;28;20091;-65
2022/12/07 04:07:27;;;;;;;2.03;1.75;;;18.50;41.00;;;;;;6199033;28;20194;-65
2022/12/07 04:10:30;;;;;;;2.05;1.85;;;18.60;40.90;;;;;;6195066;28;20416;-65
2022/12/07 04:14:17;;;;;;;2.05;1.85;;;18.50;40.90;;;;;;6198135;28;20206;-65
2022/12/07 04:16:56;;;;;;;2.28;1.85;;;18.80;40.60;;;;;;6191581;28;20971;-65
2022/12/07 04:19:58;;;;;;;1.67;1.55;;;18.50;40.80;;;;;;6197308;28;20051;-65
2022/12/07 04:23:00;;;;;;;2.35;2.00;;;18.80;40.90;;;;;;6206251;28;20568;-65
2022/12/07 04:26:01;;;;;;;;;;;18.60;40.80;;;;;;6208971;28;20095;-61
2022/12/07 04:29:03;;;;;;;2.95;2.03;;;18.80;41.40;;;;;;6208725;28;20102;-60
2022/12/07 04:32:08;;;;;;;2.38;1.98;;;18.70;41.00;;;;;;6201641;28;20164;-62
2022/12/07 04:35:10;;;;;;;1.80;1.55;;;18.80;41.20;;;;;;6209676;28;20041;-63
2022/12/07 04:38:12;;;;;;;3.38;1.95;;;18.70;41.30;;;;;;6209020;28;20045;-63
2022/12/07 04:41:13;;;;;;;1.85;1.65;;;18.80;41.10;;;;;;6206995;28;20047;-63
2022/12/07 04:44:16;;;;;;;2.13;1.63;;;18.80;41.00;;;;;;6209556;28;20037;-63
2022/12/07 04:47:17;;;;;;;1.95;1.63;;;18.80;40.80;;;;;;6208248;28;20041;-63
2022/12/07 04:50:19;;;;;;;1.92;1.70;;;18.50;40.60;;;;;;6203540;28;20576;-63
2022/12/07 04:53:21;;;;;;;2.40;1.52;;;18.70;40.60;;;;;;6205341;28;20147;-63
2022/12/07 04:56:22;;;;;;;;;;;18.40;40.40;;;;;;6202907;28;20045;-63
2022/12/07 04:59:24;;;;;;;1.63;1.30;;;18.80;41.00;;;;;;6202556;28;20780;-63
2022/12/07 05:02:25;;;;;;;2.97;1.70;;;18.40;40.50;;;;;;6200347;28;20036;-64
2022/12/07 05:05:27;;;;;;;;;;;18.80;40.60;;;;;;6203716;28;21086;-63
2022/12/07 05:08:29;;;;;;;1.85;1.55;;;18.40;40.60;;;;;;6207253;28;19935;-63
2022/12/07 05:14:46;;;;;;;1.95;1.63;;;18.70;40.30;;;;;;6197141;28;20048;-63
2022/12/07 05:17:48;;;;;;;;;;;18.70;40.40;;;;;;6200101;28;20225;-63
2022/12/07 05:20:50;;;;;;;1.77;1.40;;;18.70;40.60;;;;;;6193104;28;19939;-64
2022/12/07 05:23:52;;;;;;;1.77;1.58;;;18.50;39.90;;;;;;6192543;28;20144;-63
2022/12/07 05:26:53;;;;;;;1.80;1.60;;;18.40;40.00;;;;;;6190454;28;20448;-63
2022/12/07 05:29:55;;;;;;;1.73;1.52;;;18.10;39.80;;;;;;6192696;28;20405;-64
2022/12/07 05:32:56;;;;;;;1.50;1.20;;;18.50;40.00;;;;;;6192238;28;20684;-63
2022/12/07 05:35:58;;;;;;;;;;;18.70;40.20;;;;;;6197631;28;20049;-63
2022/12/07 05:39:00;;;;;;;1.70;1.40;;;18.40;40.30;;;;;;6189533;28;20754;-63
2022/12/07 05:45:17;;;;;;;1.63;1.48;;;18.90;40.30;;;;;;6192624;28;20428;-63
2022/12/07 05:48:19;;;;;;;1.88;1.50;;;18.40;39.90;;;;;;6185261;28;20048;-63
2022/12/07 05:51:21;;;;;;;1.50;1.40;;;18.30;40.10;;;;;;6189360;28;20048;-63
2022/12/07 05:54:23;;;;;;;1.85;1.55;;;18.60;40.20;;;;;;6197279;28;20091;-64
2022/12/07 05:57:24;;;;;;;;;;;18.70;40.30;;;;;;6198376;28;20052;-64
2022/12/07 06:00:25;;;;;;;1.60;1.50;;;18.60;40.60;;;;;;6193566;28;20208;-64
2022/12/07 06:03:27;;;;;;;1.88;1.33;;;18.70;40.00;;;;;;6191874;28;20808;-64
2022/12/07 06:06:29;;;;;;;2.42;1.67;;;18.50;40.10;;;;;;6189794;28;20857;-63
2022/12/07 06:09:30;;;;;;;1.73;1.63;;;18.30;40.10;;;;;;6192416;28;20041;-64
2022/12/07 06:12:35;;;;;;;;;;;18.60;40.00;;;;;;6193713;28;20148;-64
2022/12/07 06:15:36;;;;;;;2.00;1.50;;;19.10;40.70;;;;;;6192021;28;19928;-63
2022/12/07 06:18:38;;;;;;;1.70;1.42;;;18.50;40.00;;;;;;6201303;28;21089;-64
2022/12/07 06:21:40;;;;;;;2.10;1.55;;;18.40;40.10;;;;;;6203646;28;20049;-64
2022/12/07 06:24:41;;;;;;;1.73;1.60;;;18.60;40.20;;;;;;6191676;28;20813;-64
2022/12/07 06:27:43;;;;;;;;;;;18.60;40.00;;;;;;6187509;28;20916;-62
2022/12/07 06:30:44;;;;;;;2.03;1.55;;;18.70;40.30;;;;;;6184239;28;19998;-63
2022/12/07 06:33:46;;;;;;;1.70;1.38;;;18.20;40.00;;;;;;6180878;28;20055;-64
2022/12/07 06:36:51;;;;;;;1.63;1.45;;;18.80;40.30;;;;;;6187387;28;20501;-63
2022/12/07 06:39:52;;;;;;;1.70;1.58;;;18.60;40.10;;;;;;6188174;28;20130;-63
2022/12/07 06:42:54;;;;;;;1.98;1.67;;;18.50;40.10;;;;;;6196953;28;20915;-63
2022/12/07 06:45:55;;;;;;;1.65;1.40;;;18.60;40.30;;;;;;6167882;28;20041;-64
2022/12/07 06:48:57;;;;;;;1.67;1.42;;;18.70;40.20;;;;;;6194935;28;21461;-63
2022/12/07 06:51:59;;;;;;;1.50;1.30;;;18.50;40.10;;;;;;6194546;28;20045;-63
2022/12/07 06:55:01;;;;;;;1.50;1.40;;;18.60;39.90;;;;;;6187886;28;20032;-63
2022/12/07 06:58:02;;;;;;;;;;;18.60;40.10;;;;;;6187961;28;20234;-63
2022/12/07 07:01:09;;;;;;;1.52;1.23;;;18.80;40.60;;;;;;6196075;28;19925;-63
2022/12/07 07:04:10;;;;;;;1.60;1.30;;;18.70;40.00;;;;;;6192721;28;21054;-63
2022/12/07 07:07:12;;;;;;;1.20;1.00;;;18.70;40.20;;;;;;6193078;28;20044;-64
2022/12/07 07:10:14;;;;;;;1.00;0.70;;;18.70;40.30;;;;;;6188181;28;20060;-63
2022/12/07 07:13:15;;;;;;;2.80;0.93;;;18.80;40.10;;;;;;6182175;28;20044;-64
2022/12/07 07:16:17;;;;;;;;;;;18.40;39.90;;;;;;6170822;28;20045;-63
2022/12/07 07:19:18;;;;;;;1.70;1.10;;;18.70;40.70;;;;;;6158112;28;19929;-62
2022/12/07 07:22:20;;;;;;;;;;;18.80;39.90;;;;;;6171027;28;21082;-61
2022/12/07 07:25:22;;;;;;;0.93;0.70;;;18.80;39.90;;;;;;6171795;28;21590;-62
2022/12/07 07:28:24;;;;;;;1.70;1.00;;;18.90;38.60;;;;;;6145425;28;20068;-62
2022/12/07 07:31:25;;;;;;;;;;;18.60;38.40;;;;;;6118412;28;20048;-62
2022/12/07 07:34:27;;;;;;;8.93;1.60;;;19.60;39.80;;;;;;6140116;28;19968;-60
2022/12/07 07:37:29;;;;;;;1.25;0.85;;;19.00;38.90;;;;;;6128673;28;22337;-62
2022/12/07 07:40:30;;;;;;;0.90;0.75;;;19.10;39.00;;;;;;6091181;28;21693;-61
2022/12/07 07:43:32;;;;;;;;;;;18.80;38.50;;;;;;6110949;28;20064;-62
2022/12/07 07:46:34;;;;;;;;;;;19.60;39.50;;;;;;6117156;28;20853;-59
2022/12/07 07:49:36;;;;;;;0.93;0.75;;;19.00;39.10;;;;;;6096618;28;19962;-63
2022/12/07 07:52:38;;;;;;;;;;;19.10;38.70;;;;;;6056133;28;20056;-61
2022/12/07 07:55:39;;;;;;;;;;;19.00;38.90;;;;;;6045842;28;19928;-62
2022/12/07 07:58:41;;;;;;;1.23;1.13;;;19.80;39.40;;;;;;6047397;28;19929;-63
2022/12/07 08:01:42;;;;;;;1.98;0.90;;;19.40;38.50;;;;;;5990267;28;20041;-62
2022/12/07 08:04:44;;;;;;;0.77;0.73;;;18.90;38.40;;;;;;5987053;28;22541;-63
2022/12/07 08:07:46;;;;;;;0.80;0.65;;;19.10;38.90;;;;;;5991924;28;20041;-64
2022/12/07 08:10:48;;;;;;;2.58;1.10;;;19.30;40.00;;;;;;5908242;28;20174;-63
2022/12/07 08:13:49;;;;;;;1.90;1.15;;;19.20;41.00;;;;;;5960057;28;21435;-64
2022/12/07 08:16:51;;;;;;;3.45;1.00;;;19.00;41.80;;;;;;4923212;28;20055;-66
2022/12/07 08:19:53;;;;;;;;;;;19.00;42.00;;;;;;6255637;22;20060;-65
2022/12/07 08:22:59;;;;;;;1.83;1.00;;;18.90;41.70;;;;;;5977983;28;20366;-63
2022/12/07 08:26:00;;;;;;;1.15;0.93;;;19.00;41.70;;;;;;6067623;28;20126;-64
2022/12/07 08:32:33;;;;;;;1.17;0.90;;;18.90;37.20;;;;;;6434070;23;20576;-62
2022/12/07 08:35:40;;;;;;;0.93;0.90;;;18.60;40.90;;;;;;4517648;28;20140;-66
2022/12/07 08:38:43;;;;;;;2.40;1.45;;;19.00;41.20;;;;;;4443701;28;22477;-61
2022/12/07 08:42:05;;;;;;;1.00;0.90;;;19.00;41.00;;;;;;5683954;28;25528;-63
2022/12/07 08:45:09;;;;;;;2.33;0.93;;;19.40;40.90;;;;;;5885274;28;21635;-62
2022/12/07 08:48:13;;;;;;;1.40;1.20;;;19.30;40.70;;;;;;5840719;28;22070;-62
2022/12/07 08:51:15;;;;;;;1.90;1.15;;;19.60;40.70;;;;;;5864676;28;20317;-63
2022/12/07 08:54:19;;;;;;;1.77;1.10;;;19.60;40.30;;;;;;5880703;28;20038;-65
2022/12/07 08:57:21;;;;;;;2.50;1.75;;;19.20;39.70;;;;;;5880021;28;20140;-64
2022/12/07 09:00:22;;;;;;;2.78;1.92;;;19.60;39.50;;;;;;5848683;28;20056;-65
2022/12/07 09:03:25;;;;;;;1.73;1.50;;;19.70;40.10;;;;;;5861363;28;20034;-63
2022/12/07 09:06:27;;;;;;;4.35;1.40;;;20.00;40.00;;;;;;5840637;28;21276;-64
2022/12/07 09:09:30;;;;;;;2.10;1.33;;;20.00;39.90;;;;;;5855552;28;21290;-62
2022/12/07 09:12:32;;;;;;;1.20;1.10;;;20.10;38.10;;;;;;5838981;28;20046;-63
2022/12/07 09:15:33;;;;;;;1.27;1.13;;;19.40;39.10;;;;;;5864008;28;20047;-65
2022/12/07 09:18:35;;;;;;;2.20;1.00;;;20.20;39.50;;;;;;5856532;28;20053;-64
2022/12/07 09:21:37;;;;;;;1.67;1.15;;;20.40;39.40;;;;;;5886801;28;20189;-66
2022/12/07 09:24:39;;;;;;;;;;;19.50;38.70;;;;;;5865927;28;20050;-66
2022/12/07 09:27:41;;;;;;;;;;;20.40;38.90;;;;;;5859843;28;19929;-65
2022/12/07 09:30:46;;;;;;;1.42;1.00;;;20.20;39.40;;;;;;5879560;28;19936;-63
2022/12/07 09:34:07;;;;;;;1.05;0.90;;;20.30;39.30;;;;;;5837254;28;20140;-63
2022/12/07 09:37:09;;;;;;;;;;;20.30;39.00;;;;;;5868221;28;24150;-64
2022/12/07 09:40:12;;;;;;;1.25;0.90;;;20.50;39.50;;;;;;5886523;28;19929;-63
2022/12/07 09:43:15;;;;;;;1.30;1.10;;;20.40;38.90;;;;;;5892921;28;20132;-64
2022/12/07 09:46:19;;;;;;;1.75;1.00;;;20.40;38.90;;;;;;5838883;28;20043;-65
2022/12/07 09:49:23;;;;;;;1.60;1.20;;;20.50;39.00;;;;;;5839586;28;20959;-64
2022/12/07 09:52:28;;;;;;;1.42;1.33;;;20.20;38.90;;;;;;5887240;28;21073;-64
2022/12/07 09:55:36;;;;;;;1.48;1.13;;;20.40;38.70;;;;;;5852664;28;20038;-64
2022/12/07 09:58:38;;;;;;;1.52;1.23;;;20.40;38.80;;;;;;5856005;23;22477;-63
2022/12/07 10:01:40;;;;;;;1.27;1.15;;;20.30;38.70;;;;;;5788664;28;23332;-61
2022/12/07 10:04:44;;;;;;;1.13;1.00;;;20.60;38.80;;;;;;5821212;28;20185;-60
2022/12/07 10:07:45;;;;;;;1.10;1.00;;;20.30;38.60;;;;;;5826800;28;20047;-62
2022/12/07 10:10:51;;;;;;;;;;;20.70;38.70;;;;;;5822942;28;20035;-60
2022/12/07 10:13:53;;;;;;;1.10;1.00;;;20.40;38.70;;;;;;5827876;28;19931;-62
2022/12/07 10:16:55;;;;;;;1.23;1.10;;;20.40;38.20;;;;;;5821572;28;20053;-62
2022/12/07 10:20:15;;;;;;;1.00;0.80;;;21.00;38.20;;;;;;5897277;23;21205;-63
2022/12/07 10:23:18;;;;;;;1.17;1.05;;;20.70;37.80;;;;;;5835447;28;20047;-61
2022/12/07 10:26:28;;;;;;;1.05;0.90;;;20.90;37.90;;;;;;5848570;28;21022;-58
2022/12/07 10:29:32;;;;;;;1.38;0.93;;;20.60;37.30;;;;;;5842490;28;20251;-60
2022/12/07 10:32:36;;;;;;;1.10;1.00;;;21.00;37.70;;;;;;5844356;28;20798;-61
2022/12/07 10:35:43;;;;;;;2.92;0.80;;;21.00;38.20;;;;;;5843806;28;20047;-61
2022/12/07 10:38:47;;;;;;;1.00;0.90;;;20.90;38.70;;;;;;5837055;28;20185;-61
2022/12/07 10:41:57;;;;;;;0.80;0.80;;;21.10;38.50;;;;;;5828485;28;20043;-61
2022/12/07 10:45:09;;;;;;;0.53;0.50;;;21.00;38.00;;;;;;5829634;28;21787;-61
2022/12/07 10:48:25;;;;;;;1.10;0.80;;;21.20;37.30;;;;;;5832276;28;20051;-62
2022/12/07 10:51:37;;;;;;;0.88;0.80;;;21.50;37.70;;;;;;5874127;28;20049;-64
2022/12/07 10:54:49;;;;;;;0.90;0.70;;;21.10;37.30;;;;;;5869707;28;20106;-63
2022/12/07 11:01:28;;;;;;;0.80;0.80;;;21.30;34.10;;;;;;6319028;23;22624;-62
2022/12/07 11:04:37;;;;;;;1.13;0.85;;;21.10;36.90;;;;;;5875531;28;20120;-62
2022/12/07 11:07:47;;;;;;;1.75;0.68;;;21.40;36.80;;;;;;5910679;28;20498;-63
2022/12/07 11:11:05;;;;;;;1.10;1.00;;;21.10;36.20;;;;;;5909477;28;20038;-62
2022/12/07 11:14:18;;;;;;;0.88;0.70;;;21.40;36.60;;;;;;5936474;28;20038;-63
2022/12/07 11:17:35;;;;;;;1.05;0.70;;;21.40;52.70;;;;;;5932651;28;20043;-64
2022/12/07 11:20:43;;;;;;;2.03;0.80;;;21.10;36.30;;;;;;5929692;28;20053;-61
2022/12/07 11:23:51;;;;;;;0.98;0.75;;;21.20;36.70;;;;;;5918675;28;20042;-62
2022/12/07 11:27:07;;;;;;;0.90;0.77;;;21.40;36.90;;;;;;5915966;28;20065;-62
2022/12/07 11:30:14;;;;;;;1.10;0.93;;;21.10;36.70;;;;;;5903048;28;20046;-62
2022/12/07 11:33:24;;;;;;;1.27;0.98;;;21.40;36.60;;;;;;5910927;28;20125;-62
2022/12/07 11:36:37;;;;;;;1.33;1.05;;;21.10;37.00;;;;;;5927650;28;22853;-62
2022/12/07 11:39:44;;;;;;;2.10;1.73;;;21.30;36.90;;;;;;5970430;28;20038;-63
2022/12/07 11:42:53;;;;;;;1.75;1.60;;;21.00;36.70;;;;;;5965138;28;20136;-63
2022/12/07 11:46:01;;;;;;;2.50;2.10;;;20.80;36.60;;;;;;5984486;28;20030;-62
2022/12/07 11:49:10;;;;;;;2.90;2.20;;;21.00;37.10;;;;;;6036306;28;20038;-62
2022/12/07 11:52:22;;;;;;;2.50;2.00;;;21.00;37.20;;;;;;6041879;28;20173;-62
2022/12/07 11:55:38;;;;;;;2.50;2.30;;;21.30;37.40;;;;;;6025848;28;20485;-62
2022/12/07 11:58:47;;;;;;;2.72;2.20;;;20.70;37.10;;;;;;5995688;28;20046;-62
2022/12/07 12:01:55;;;;;;;1.83;1.65;;;21.40;37.40;;;;;;5973981;28;20046;-63
2022/12/07 12:05:06;;;;;;;2.15;1.83;;;21.20;53.70;;;;;;5990316;28;20053;-66
2022/12/07 12:08:16;;;;;;;1.95;1.70;;;21.30;37.50;;;;;;5976753;28;20444;-63
2022/12/07 12:11:56;;;;;;;1.73;1.45;;;21.30;37.30;;;;;;5946847;28;20054;-61
2022/12/07 12:15:29;;;;;;;1.40;1.30;;;21.40;37.10;;;;;;5971656;28;20074;-63
2022/12/07 12:18:51;;;;;;;1.50;1.25;;;21.40;37.30;;;;;;5982029;28;20026;-62
2022/12/07 12:22:00;;;;;;;1.60;1.40;;;21.00;37.00;;;;;;5969893;28;20045;-63
2022/12/07 12:25:06;;;;;;;1.23;1.13;;;20.80;36.90;;;;;;6004163;28;20718;-62
2022/12/07 12:28:21;;;;;;;1.40;1.27;;;21.10;37.10;;;;;;6017407;28;20054;-62
2022/12/07 12:31:39;;;;;;;1.42;1.17;;;20.90;37.20;;;;;;5942495;28;20144;-63
2022/12/07 12:34:57;;;;;;;1.00;0.90;;;20.80;37.20;;;;;;5974595;28;20128;-62
2022/12/07 12:38:28;;;;;;;1.17;1.08;;;21.00;37.50;;;;;;5977434;28;21899;-62
2022/12/07 12:45:21;;;;;;;1.20;1.10;;;21.10;37.70;;;;;;5973067;28;21113;-62
2022/12/07 12:48:35;;;;;;;1.27;1.10;;;21.00;37.40;;;;;;6105430;23;20870;-63
2022/12/07 12:51:39;;;;;;;1.45;1.20;;;21.20;37.50;;;;;;6074769;23;20144;-63
2022/12/07 12:54:59;;;;;;;1.48;1.20;;;21.30;37.50;;;;;;5943011;28;20128;-62
2022/12/07 12:58:28;;;;;;;1.42;1.10;;;21.20;37.70;;;;;;5938594;28;20818;-63
2022/12/07 13:01:42;;;;;;;1.33;1.20;;;21.10;37.60;;;;;;5868357;28;20053;-63
2022/12/07 13:04:53;;;;;;;1.30;1.10;;;21.20;37.30;;;;;;5888203;28;20086;-63
2022/12/07 13:07:59;;;;;;;1.42;1.23;;;21.20;37.90;;;;;;5888010;28;20132;-63
2022/12/07 13:11:19;;;;;;;2.30;1.23;;;20.90;37.80;;;;;;5990855;23;20544;-63
2022/12/07 13:21:35;;;;;;;2.83;1.00;;;21.10;54.10;;;;;;7047163;23;20021;-63
2022/12/07 13:24:38;;;;;;;2.05;0.95;;;21.20;54.60;;;;;;6354088;23;21418;-64
2022/12/07 13:27:44;;;;;;;1.40;1.10;;;20.60;37.70;;;;;;6101366;23;20043;-63
2022/12/07 13:34:04;;;;;;;4.40;1.15;;;21.40;35.30;;;;;;7163735;23;20351;-64
2022/12/07 13:37:14;;;;;;;1.52;1.20;;;21.30;54.90;;;;;;6224443;23;20051;-63
2022/12/07 13:40:20;;;;;;;2.65;1.00;;;20.90;37.70;;;;;;6076503;23;20089;-65
2022/12/07 13:43:21;;;;;;;1.58;1.40;;;21.40;38.70;;;;;;5817950;28;20046;-61
2022/12/07 13:46:30;;;;;;;1.40;1.20;;;21.10;38.70;;;;;;5854551;28;20156;-62
2022/12/07 13:49:37;;;;;;;1.65;1.17;;;21.20;38.70;;;;;;5949233;23;20110;-61
2022/12/07 13:56:16;;;;;;;1.35;1.20;;;21.30;36.00;;;;;;5737167;29;20059;-63
2022/12/07 13:59:19;;;;;;;3.47;1.05;;;20.60;38.90;;;;;;5764915;29;20071;-62
2022/12/07 14:02:24;;;;;;;1.90;1.40;;;20.30;38.70;;;;;;5753448;28;20438;-62
2022/12/07 14:05:28;;;;;;;1.40;1.23;;;21.00;39.10;;;;;;6382556;23;23220;-61
2022/12/07 14:08:30;;;;;;;1.67;1.13;;;20.70;38.80;;;;;;5718515;29;20264;-64
2022/12/07 14:14:59;;;;;;;1.50;1.30;;;20.90;35.60;;;;;;6018598;23;20047;-66
2022/12/07 14:18:04;;;;;;;1.40;1.20;;;21.40;39.40;;;;;;5869380;28;21118;-63
2022/12/07 14:21:14;;;;;;;1.55;1.30;;;21.00;39.50;;;;;;5863892;28;20073;-66
2022/12/07 14:24:17;;;;;;;1.58;1.45;;;21.20;39.60;;;;;;5882768;28;20125;-64
2022/12/07 14:27:21;;;;;;;1.63;1.27;;;21.20;39.60;;;;;;6223821;23;20050;-66
2022/12/07 14:30:25;;;;;;;1.48;1.38;;;21.20;39.40;;;;;;5873819;23;20055;-67
2022/12/07 14:33:27;;;;;;;1.80;1.50;;;21.00;39.50;;;;;;5834511;28;22080;-66
2022/12/07 14:36:29;;;;;;;1.90;1.58;;;21.30;39.70;;;;;;5862030;28;21669;-65
2022/12/07 14:39:30;;;;;;;;;;;21.10;39.60;;;;;;5857961;28;21641;-65
2022/12/07 14:46:34;;;;;;;1.80;1.50;;;21.00;35.90;;;;;;6783301;23;34525;31
2022/12/07 14:49:36;;;;;;;2.53;1.60;;;21.30;37.40;;;;;;5842547;29;20056;-67
2022/12/07 14:52:38;;;;;;;1.60;1.40;;;21.20;39.90;;;;;;5812063;29;24844;-64
2022/12/07 14:56:00;;;;;;;1.90;1.38;;;20.70;39.60;;;;;;5794454;29;20130;-65
2022/12/07 14:59:01;;;;;;;1.67;1.50;;;21.00;39.60;;;;;;5821685;29;20043;-67
2022/12/07 15:05:26;;;;;;;1.58;1.35;;;21.10;37.30;;;;;;5844033;28;19931;-65
2022/12/07 15:08:27;;;;;;;1.25;1.08;;;21.10;39.50;;;;;;6253885;23;20064;-66
2022/12/07 15:11:29;;;;;;;1.50;1.30;;;20.70;39.90;;;;;;5880470;28;20396;-65
2022/12/07 15:14:32;;;;;;;1.50;1.30;;;21.00;40.00;;;;;;5834353;29;20052;-66
2022/12/07 15:17:35;;;;;;;1.67;1.40;;;20.70;39.90;;;;;;5837851;29;21307;-65
2022/12/07 15:20:37;;;;;;;1.50;1.40;;;21.30;40.10;;;;;;5795381;29;20046;-67
2022/12/07 15:23:38;;;;;;;1.60;1.40;;;21.30;40.10;;;;;;5754996;29;20049;-66
2022/12/07 15:26:41;;;;;;;1.70;1.23;;;21.10;39.70;;;;;;5933256;23;20067;-66
2022/12/07 15:29:43;;;;;;;1.63;1.38;;;20.90;40.30;;;;;;5761067;29;27979;-65
2022/12/07 15:32:48;;;;;;;;;;;21.20;40.20;;;;;;5750678;29;20055;-64
2022/12/07 15:35:50;;;;;;;1.77;1.30;;;21.50;40.90;;;;;;5772190;29;21504;-64
2022/12/07 15:38:52;;;;;;;1.45;1.35;;;20.70;40.40;;;;;;5763764;29;20052;-62
2022/12/07 15:42:15;;;;;;;1.65;1.38;;;20.80;40.40;;;;;;5732491;29;20048;-63
2022/12/07 15:45:22;;;;;;;1.30;1.20;;;21.00;36.40;;;;;;6370132;23;20027;31
2022/12/07 15:48:24;;;;;;;1.67;1.50;;;21.10;41.10;;;;;;6147641;23;20394;-62
2022/12/07 15:51:30;;;;;;;2.55;1.70;;;20.90;40.20;;;;;;5898889;28;20050;-65
2022/12/07 15:58:03;;;;;;;1.38;1.23;;;20.80;36.70;;;;;;5959973;23;20050;-63
2022/12/07 16:01:11;;;;;;;1.70;1.58;;;21.00;40.60;;;;;;5891001;28;20316;-64
2022/12/07 16:04:12;;;;;;;1.75;1.40;;;21.00;40.40;;;;;;5909807;28;20047;-65
2022/12/07 16:07:16;;;;;;;1.95;1.65;;;20.70;40.70;;;;;;5987421;23;20090;-64
2022/12/07 16:10:17;;;;;;;1.83;1.55;;;20.70;40.60;;;;;;5867658;28;20043;-64
2022/12/07 16:13:19;;;;;;;2.67;2.33;;;21.00;40.70;;;;;;5899965;28;20054;-65
2022/12/07 16:16:21;;;;;;;3.28;2.72;;;21.00;40.70;;;;;;5911586;28;20173;-66
2022/12/07 16:19:23;;;;;;;2.50;2.05;;;21.00;41.00;;;;;;5934473;28;20170;-62
2022/12/07 16:22:25;;;;;;;3.25;2.22;;;21.10;41.20;;;;;;5892745;28;20050;-64
2022/12/07 16:25:27;;;;;;;2.92;2.30;;;21.00;41.00;;;;;;5897774;28;20185;-63
2022/12/07 16:28:29;;;;;;;2.75;2.08;;;21.00;41.10;;;;;;5899375;28;20047;-64
2022/12/07 16:31:31;;;;;;;2.60;2.10;;;20.70;40.90;;;;;;5878579;28;20058;-64
2022/12/07 16:34:33;;;;;;;2.75;2.42;;;20.80;41.00;;;;;;5880924;28;20170;-63
2022/12/07 16:37:35;;;;;;;;;;;20.40;40.80;;;;;;5874781;28;22099;-62
2022/12/07 16:40:36;;;;;;;;;;;20.90;41.30;;;;;;5913517;28;20016;-65
2022/12/07 16:43:38;;;;;;;4.20;2.00;;;21.00;41.40;;;;;;5885677;28;22983;-64
2022/12/07 16:46:40;;;;;;;1.83;1.60;;;20.80;41.10;;;;;;5851151;28;23685;-66
2022/12/07 17:00:11;;;;;;;2.75;1.50;;;20.70;37.30;;;;;;5977645;23;20055;-69
2022/12/07 17:03:14;;;;;;;2.17;1.98;;;20.40;41.00;;;;;;5924994;28;20245;-66
2022/12/07 17:06:24;;;;;;;2.28;1.98;;;20.70;41.30;;;;;;5918452;28;20063;-65
2022/12/07 17:09:25;;;;;;;2.50;1.67;;;20.80;41.10;;;;;;5921682;29;20079;-70